Google Maps JavaScript API Example
Pilot Flight Report # 92784 Submitted by : AST775 on 2019-03-18
Date: 2019-03-18Aircraft: DeHavilland DHC6 Twin Otter - Wheeled
Flight No.: Not AvailableDistance (Nm): 214.59
Departure: YMML - Melbourne InternationalDestination: YCOM - Cooma-Snowy Mountains
 TimeFuelWeightSpeeds  
Out (Taxi)2034Z1896 lbs9613 lbs Flight RulesVFR
Off (Takeoff)2034Z 9609 lbs87 ktsFlight Level9500
On (Landing)2155Z 8534 lbs88 ktsVSTD-246 ft/min
In (Ramp)2155Z817 lbs8533 lbs ZFW7715 lbs
Flight1.40  -  1:211079 lbs  Pax0
Block1.35  -  1:211079 lbs  Cargo0
Departure Weather172140Z 00000KT 0SM SKC 0/0 A3013
Destination WeatherYCOM 172155Z 18713KT 55SM BKN036 OVC040 17/17 A3003
Flight CommentsLeg 18 - YMML - YCOM